Fire Weather Observation
Issued by NWS Grand Junction, CO

Home | Current Version | Previous Version | Graphics & Text | Print | Product List | Glossary On
Versions: 1 2 3 4 5 6 7 8 9 10 11 12 13 14 15 16 17 18 19 20 21 22 23 24 25 26 27 28 29 30 31 32 33 34 35 36 37 38 39 40 41 42 43 44 45 46 47 48 49 50
000
SHUS65 KGJT 222020
FWOGJT

DAILY FIRE WEATHER OBSERVATION
NATIONAL WEATHER SERVICE GRAND JUNCTION CO
112 PM MST SUN FEB 22 2015

STATE OF THE WEATHER (W)               7
DRY BULB TEMPERATURE                   33   DEGREES FAHRENHEIT
RELATIVE HUMIDITY (RH)                 56   PERCENT
LIGHTNING ACTIVITY LEVEL
  (LAL - MIDNIGHT TO 1 PM)             1
WIND DIRECTION                         090  DEGREES (C IF CALM)
WIND SPEED                             9    MPH
MAX TEMP (1 PM - 1 PM)                 48   DEGREES FAHRENHEIT
MIN TEMP (1 PM - 1 PM)                 26   DEGREES FAHRENHEIT
MAX RH (1 PM - 1 PM)                   81   PERCENT
MIN RH (1 PM - 1 PM)                   28   PERCENT
PCPN DURATION                          1.0  HOURS
PCPN AMT (1 PM - 1 PM)                 T    INCHES
LAL (1 PM - 1 PM)                      1

$$

METAR KGJT 221953Z 07008KT 2 1/2SM HZ BKN038 OVC048 01/M07 A2995
      RMK AO2 SLP155 T00061072


USA.gov is the U.S. government's official web portal to all federal, state and local government web resources and services.